Time;durP1;ratioP1;P1;durP2;ratioP2;P2;SDS_P1;SDS_P2;PMS_P1;PMS_P2;Temp;Humidity;BMP_temperature;BMP_pressure;BME280_temperature;BME280_humidity;BME280_pressure;Samples;Min_cycle;Max_cycle;Signal;HPM_P1;HPM_P2
2021/12/31 00:02:05;;;;;;;3.03;2.70;;;12.70;83.40;;;;;;5052790;28;20296;-55
2021/12/31 00:04:32;;;;;;;2.35;2.20;;;12.70;83.40;;;;;;5052804;28;20206;-54
2021/12/31 00:07:00;;;;;;;2.53;2.42;;;12.70;83.50;;;;;;5052971;28;20304;-54
2021/12/31 00:09:27;;;;;;;3.33;2.72;;;12.70;83.30;;;;;;5051725;28;20209;-58
2021/12/31 00:11:54;;;;;;;2.90;2.70;;;12.70;83.70;;;;;;5052671;28;20237;-54
2021/12/31 00:14:22;;;;;;;2.70;2.50;;;12.60;83.60;;;;;;5052684;28;20236;-55
2021/12/31 00:16:49;;;;;;;2.45;2.35;;;12.60;84.00;;;;;;5052636;28;20229;-54
2021/12/31 00:19:18;;;;;;;3.40;2.70;;;12.60;83.80;;;;;;5052521;28;20216;-55
2021/12/31 00:21:47;;;;;;;3.58;2.70;;;12.60;83.90;;;;;;5052654;28;20802;-54
2021/12/31 00:24:14;;;;;;;2.65;2.45;;;12.60;84.40;;;;;;5052664;28;20678;-55
2021/12/31 00:26:41;;;;;;;2.80;2.55;;;12.60;84.70;;;;;;5051440;28;20207;-54
2021/12/31 00:29:08;;;;;;;2.58;2.40;;;12.60;85.10;;;;;;5052632;28;20296;-55
2021/12/31 00:31:35;;;;;;;2.63;2.45;;;12.50;85.70;;;;;;5052636;28;20223;-54
2021/12/31 00:34:02;;;;;;;2.50;2.30;;;12.50;86.20;;;;;;5052396;28;20753;-55
2021/12/31 00:36:40;;;;;;;2.70;2.50;;;12.30;86.60;;;;;;5052535;28;20642;-54
2021/12/31 00:39:07;;;;;;;2.50;2.30;;;12.30;86.90;;;;;;5052534;28;20207;-54
2021/12/31 00:41:34;;;;;;;2.80;2.60;;;12.30;86.90;;;;;;5051223;28;20571;-61
2021/12/31 00:44:01;;;;;;;2.85;2.40;;;12.30;87.10;;;;;;5052517;28;20212;-54
2021/12/31 00:46:30;;;;;;;2.33;2.10;;;12.20;87.10;;;;;;5054861;28;20207;-54
2021/12/31 00:48:57;;;;;;;2.83;2.60;;;12.20;87.20;;;;;;5056325;28;20202;-56
2021/12/31 00:51:24;;;;;;;2.47;2.28;;;12.20;87.00;;;;;;5056441;28;20228;-56
2021/12/31 00:53:52;;;;;;;5.53;3.22;;;12.20;87.20;;;;;;5056348;28;20295;-55
2021/12/31 00:56:19;;;;;;;2.78;2.58;;;12.20;87.10;;;;;;5054990;28;20233;-60
2021/12/31 00:58:46;;;;;;;2.72;2.53;;;12.20;87.10;;;;;;5056334;28;20201;-55
2021/12/31 01:01:18;;;;;;;2.65;2.20;;;12.20;86.80;;;;;;5056246;28;20204;-55
2021/12/31 01:03:44;;;;;;;2.50;2.30;;;12.20;86.70;;;;;;5055918;28;20320;-55
2021/12/31 01:06:11;;;;;;;2.45;2.25;;;12.20;87.00;;;;;;5056101;28;20204;-55
2021/12/31 01:08:38;;;;;;;2.20;2.10;;;12.20;87.10;;;;;;5056019;28;20304;-55
2021/12/31 01:11:07;;;;;;;2.58;2.15;;;12.10;87.10;;;;;;5054665;28;20715;-56
2021/12/31 01:13:37;;;;;;;2.22;2.13;;;12.10;87.30;;;;;;5056216;28;20635;-56
2021/12/31 01:16:05;;;;;;;2.20;2.10;;;12.10;87.30;;;;;;5055822;28;20224;-54
2021/12/31 01:21:13;;;;;;;2.50;2.30;;;12.10;87.20;;;;;;5055578;28;20204;-54
2021/12/31 01:23:40;;;;;;;3.03;2.63;;;12.00;87.40;;;;;;5055775;28;20289;-55
2021/12/31 01:26:08;;;;;;;3.00;2.20;;;12.10;87.40;;;;;;5054449;28;20726;-55
2021/12/31 01:28:36;;;;;;;2.53;2.33;;;12.00;87.10;;;;;;5055753;28;20205;-55
2021/12/31 01:31:03;;;;;;;2.90;2.60;;;12.00;87.20;;;;;;5055733;28;20205;-54
2021/12/31 01:33:30;;;;;;;3.60;2.25;;;12.00;87.10;;;;;;5055462;28;20212;-55
2021/12/31 01:35:57;;;;;;;2.40;2.20;;;11.90;87.30;;;;;;5055471;28;20256;-56
2021/12/31 01:38:24;;;;;;;3.38;2.60;;;11.80;87.40;;;;;;5055611;28;20202;-58
2021/12/31 01:40:52;;;;;;;3.08;2.50;;;11.80;87.40;;;;;;5054289;28;20308;-58
2021/12/31 01:43:20;;;;;;;2.10;1.90;;;11.80;87.40;;;;;;5055402;28;20296;-58
2021/12/31 01:45:54;;;;;;;3.13;2.20;;;11.70;87.40;;;;;;5055306;28;20209;-58
2021/12/31 01:48:24;;;;;;;2.53;2.33;;;11.70;87.80;;;;;;5055077;28;20255;-59
2021/12/31 01:50:52;;;;;;;2.40;2.20;;;11.60;87.70;;;;;;5055294;28;20610;-58
2021/12/31 01:53:21;;;;;;;2.35;2.15;;;11.60;88.00;;;;;;5055283;28;20201;-59
2021/12/31 01:55:50;;;;;;;3.80;2.47;;;11.50;88.00;;;;;;5053830;28;20233;-58
2021/12/31 01:58:22;;;;;;;6.78;2.40;;;11.40;88.30;;;;;;5054364;28;20694;-58
2021/12/31 02:00:49;;;;;;;2.60;2.40;;;11.40;88.30;;;;;;5054940;28;20660;-58
2021/12/31 02:03:19;;;;;;;3.13;2.15;;;11.30;88.50;;;;;;5055054;28;20221;-58
2021/12/31 02:05:46;;;;;;;2.47;2.20;;;11.20;88.70;;;;;;5055005;28;20209;-56
2021/12/31 02:08:13;;;;;;;3.33;2.25;;;11.20;88.70;;;;;;5055080;28;20204;-57
2021/12/31 02:10:40;;;;;;;3.15;2.35;;;11.20;88.80;;;;;;5053574;28;20239;-57
2021/12/31 02:13:08;;;;;;;3.17;2.03;;;11.20;88.70;;;;;;5054824;28;20205;-57
2021/12/31 02:15:37;;;;;;;3.15;2.40;;;11.10;88.80;;;;;;5054767;28;20209;-58
2021/12/31 02:18:08;;;;;;;3.05;2.00;;;11.10;89.00;;;;;;5054828;28;20220;-59
2021/12/31 02:20:40;;;;;;;2.42;2.20;;;11.00;89.10;;;;;;5054718;28;20209;-57
2021/12/31 02:23:13;;;;;;;2.58;2.03;;;11.00;89.00;;;;;;5054726;28;20197;-57
2021/12/31 02:25:40;;;;;;;3.90;2.40;;;11.00;89.20;;;;;;5053282;28;20751;-56
2021/12/31 02:28:08;;;;;;;3.92;2.45;;;11.00;89.00;;;;;;5054609;28;20722;-57
2021/12/31 02:30:35;;;;;;;2.70;2.05;;;10.90;89.20;;;;;;5054620;28;20201;-56
2021/12/31 02:33:03;;;;;;;2.80;2.30;;;11.00;89.10;;;;;;5054569;28;20223;-58
2021/12/31 02:35:31;;;;;;;2.15;1.95;;;11.00;88.90;;;;;;5054168;28;20279;-55
2021/12/31 02:37:59;;;;;;;4.45;2.20;;;10.90;88.90;;;;;;5054507;28;20205;-58
2021/12/31 02:40:28;;;;;;;2.53;1.92;;;10.90;88.90;;;;;;5053041;28;20296;-57
2021/12/31 02:42:56;;;;;;;2.20;2.00;;;10.90;89.00;;;;;;5054425;28;20296;-57
2021/12/31 02:45:29;;;;;;;2.30;1.85;;;10.80;89.20;;;;;;5054166;28;20206;-58
2021/12/31 02:47:57;;;;;;;2.40;2.20;;;10.80;89.10;;;;;;5054290;28;20220;-56
2021/12/31 02:50:33;;;;;;;3.05;2.20;;;10.90;89.00;;;;;;5054117;28;20223;-58
2021/12/31 02:53:02;;;;;;;2.50;2.08;;;10.90;88.80;;;;;;5053971;28;20219;-60
2021/12/31 02:55:31;;;;;;;2.40;2.20;;;10.80;88.90;;;;;;5052797;28;20201;-56
2021/12/31 02:57:58;;;;;;;2.20;2.00;;;10.80;88.80;;;;;;5054003;28;20244;-59
2021/12/31 03:00:26;;;;;;;3.40;2.30;;;10.80;88.90;;;;;;5054034;28;20210;-56
2021/12/31 03:02:53;;;;;;;1.95;1.85;;;10.80;89.00;;;;;;5053862;28;20230;-56
2021/12/31 03:05:23;;;;;;;2.42;2.10;;;10.70;89.00;;;;;;5053581;28;20211;-59
2021/12/31 03:07:51;;;;;;;2.22;2.03;;;10.70;89.10;;;;;;5053918;28;20202;-56
2021/12/31 03:10:21;;;;;;;2.67;2.00;;;10.70;89.10;;;;;;5052498;28;20229;-57
2021/12/31 03:12:51;;;;;;;3.25;2.20;;;10.70;89.00;;;;;;5053718;28;20202;-57
2021/12/31 03:15:18;;;;;;;3.17;2.90;;;10.60;89.30;;;;;;5053724;28;20208;-58
2021/12/31 03:17:45;;;;;;;2.63;2.10;;;10.60;89.20;;;;;;5053500;28;20252;-56
2021/12/31 03:20:25;;;;;;;2.40;2.20;;;10.60;89.30;;;;;;5053414;28;20212;-57
2021/12/31 03:22:52;;;;;;;3.03;2.28;;;10.70;89.10;;;;;;5053520;28;20549;-59
2021/12/31 03:25:20;;;;;;;2.33;2.13;;;10.60;89.00;;;;;;5052176;28;20212;-56
2021/12/31 03:27:47;;;;;;;3.58;2.30;;;10.70;88.80;;;;;;5053475;28;20206;-56
2021/12/31 03:30:16;;;;;;;2.40;2.20;;;10.70;88.60;;;;;;5053365;28;20291;-55
2021/12/31 03:32:43;;;;;;;2.60;2.40;;;10.70;88.60;;;;;;5053304;28;20237;-59
2021/12/31 03:35:10;;;;;;;2.00;1.90;;;10.70;88.50;;;;;;5053301;28;20237;-59
2021/12/31 03:37:36;;;;;;;2.35;2.10;;;10.70;88.50;;;;;;5053296;28;20247;-59
2021/12/31 03:40:05;;;;;;;2.25;2.05;;;10.70;88.50;;;;;;5052010;28;20205;-60
2021/12/31 03:42:33;;;;;;;2.30;2.13;;;10.70;88.50;;;;;;5053270;28;20244;-59
2021/12/31 03:45:00;;;;;;;3.05;2.05;;;10.70;88.30;;;;;;5053058;28;20288;-57
2021/12/31 03:47:27;;;;;;;2.28;1.95;;;10.70;88.50;;;;;;5053114;28;20215;-58
2021/12/31 03:49:54;;;;;;;2.60;1.95;;;10.70;88.50;;;;;;5052960;28;20663;-57
2021/12/31 03:52:20;;;;;;;3.55;2.13;;;10.70;88.40;;;;;;5053126;28;20300;-57
2021/12/31 03:54:47;;;;;;;2.00;1.90;;;10.90;88.00;;;;;;5051706;28;20576;-60
2021/12/31 03:57:14;;;;;;;2.33;2.13;;;10.90;87.60;;;;;;5052882;28;20339;-57
2021/12/31 03:59:42;;;;;;;2.30;2.10;;;10.90;87.40;;;;;;5052887;28;20683;-58
2021/12/31 04:02:09;;;;;;;2.72;2.13;;;11.00;87.30;;;;;;5052982;28;20364;-59
2021/12/31 04:04:36;;;;;;;2.20;2.00;;;11.00;87.20;;;;;;5052816;28;20667;-58
2021/12/31 04:07:03;;;;;;;2.40;2.20;;;10.90;87.40;;;;;;5052885;28;20201;-58
2021/12/31 04:09:30;;;;;;;2.13;2.03;;;10.90;87.40;;;;;;5051553;28;20201;-56
2021/12/31 04:11:57;;;;;;;2.63;2.20;;;10.90;87.60;;;;;;5052649;28;20241;-59
2021/12/31 04:14:23;;;;;;;2.90;2.35;;;10.90;87.80;;;;;;5052798;28;20212;-59
2021/12/31 04:16:52;;;;;;;3.95;2.30;;;10.90;87.80;;;;;;5052738;28;20251;-56
2021/12/31 04:19:18;;;;;;;2.20;2.00;;;10.90;87.70;;;;;;5052598;28;20237;-60
2021/12/31 04:21:48;;;;;;;3.63;2.35;;;10.90;87.80;;;;;;5052356;28;20207;-58
2021/12/31 04:24:27;;;;;;;4.50;2.50;;;10.80;88.00;;;;;;5052688;28;20687;-58
2021/12/31 04:26:54;;;;;;;2.90;2.17;;;10.70;88.10;;;;;;5052544;28;20204;-59
2021/12/31 04:29:20;;;;;;;3.00;2.70;;;10.70;88.50;;;;;;5052639;28;20205;-60
2021/12/31 04:31:47;;;;;;;3.88;2.22;;;10.50;89.00;;;;;;5052691;28;20579;-57
2021/12/31 04:34:15;;;;;;;2.42;2.22;;;10.50;89.40;;;;;;5052443;28;20215;-59
2021/12/31 04:36:42;;;;;;;3.58;1.95;;;10.40;89.50;;;;;;5052655;28;20691;-58
2021/12/31 04:39:09;;;;;;;3.85;1.98;;;10.40;89.60;;;;;;5052466;28;20232;-56
2021/12/31 04:41:36;;;;;;;2.20;1.95;;;10.40;89.60;;;;;;5051211;28;20293;-59
2021/12/31 04:44:03;;;;;;;3.42;2.17;;;10.40;89.60;;;;;;5052511;28;20244;-56
2021/12/31 04:46:30;;;;;;;2.72;2.20;;;10.30;90.00;;;;;;5052435;28;20678;-61
2021/12/31 04:48:57;;;;;;;2.30;2.10;;;10.30;89.90;;;;;;5052465;28;20248;-60
2021/12/31 04:51:25;;;;;;;2.13;1.90;;;10.30;89.90;;;;;;5052454;28;20212;-58
2021/12/31 04:53:52;;;;;;;3.28;2.67;;;10.30;89.80;;;;;;5052290;28;20201;-56
2021/12/31 04:56:19;;;;;;;2.33;2.15;;;10.30;89.80;;;;;;5050992;28;20614;-59
2021/12/31 04:58:46;;;;;;;2.72;2.00;;;10.30;89.70;;;;;;5052406;28;20233;-58
2021/12/31 05:01:12;;;;;;;2.95;2.30;;;10.30;89.80;;;;;;5052307;28;20228;-59
2021/12/31 05:03:40;;;;;;;2.50;2.30;;;10.20;89.80;;;;;;5052340;28;20211;-59
2021/12/31 05:06:07;;;;;;;3.25;2.38;;;10.20;89.90;;;;;;5052101;28;20204;-56
2021/12/31 05:08:35;;;;;;;2.97;2.20;;;10.10;90.20;;;;;;5052201;28;20202;-58
2021/12/31 05:11:02;;;;;;;3.92;2.50;;;10.10;90.20;;;;;;5050795;28;20783;-56
2021/12/31 05:13:28;;;;;;;2.83;2.53;;;10.10;90.60;;;;;;5052295;28;20300;-59
2021/12/31 05:16:01;;;;;;;2.65;2.20;;;10.10;90.50;;;;;;5052300;28;20224;-59
2021/12/31 05:18:28;;;;;;;4.25;2.20;;;10.10;90.60;;;;;;5052016;28;20240;-57
2021/12/31 05:20:55;;;;;;;2.45;2.25;;;10.20;90.40;;;;;;5051991;28;20206;-56
2021/12/31 05:23:21;;;;;;;2.75;2.47;;;10.20;90.10;;;;;;5052220;28;20248;-57
2021/12/31 05:25:50;;;;;;;2.33;2.13;;;10.30;90.10;;;;;;5050913;28;20258;-59
2021/12/31 05:28:17;;;;;;;2.15;1.80;;;10.30;90.00;;;;;;5052189;28;20208;-56
2021/12/31 05:30:44;;;;;;;1.90;1.80;;;10.40;89.70;;;;;;5052091;28;20648;-55
2021/12/31 05:33:10;;;;;;;2.05;1.80;;;10.50;89.30;;;;;;5053751;28;20205;-55
2021/12/31 05:35:37;;;;;;;2.25;2.05;;;10.70;88.80;;;;;;5055340;28;20634;-56
2021/12/31 05:38:04;;;;;;;2.05;1.95;;;10.70;88.50;;;;;;5055551;28;20325;-58
2021/12/31 05:40:31;;;;;;;4.05;2.88;;;10.80;88.10;;;;;;5054242;28;20236;-59
2021/12/31 05:42:59;;;;;;;2.95;2.70;;;10.60;87.90;;;;;;5055444;28;20291;-59
2021/12/31 05:45:26;;;;;;;2.90;2.70;;;10.30;88.70;;;;;;5055442;28;20573;-58
2021/12/31 05:47:53;;;;;;;3.13;2.72;;;10.10;89.70;;;;;;5055396;28;20563;-59
2021/12/31 05:50:28;;;;;;;2.80;2.60;;;10.00;90.00;;;;;;5055124;28;20292;-58
2021/12/31 05:52:55;;;;;;;2.60;2.40;;;9.90;90.70;;;;;;5055264;28;20211;-59
2021/12/31 05:55:22;;;;;;;2.58;2.20;;;9.80;90.90;;;;;;5053961;28;20205;-57
2021/12/31 05:57:49;;;;;;;4.18;2.50;;;9.70;91.10;;;;;;5055160;28;20251;-59
2021/12/31 06:00:19;;;;;;;4.07;2.45;;;9.60;91.50;;;;;;5055128;28;20643;-59
2021/12/31 06:02:45;;;;;;;3.53;2.40;;;9.60;91.80;;;;;;5055004;28;20201;-57
2021/12/31 06:05:12;;;;;;;3.15;2.38;;;9.60;91.70;;;;;;5054893;28;20670;-58
2021/12/31 06:07:39;;;;;;;2.60;2.38;;;9.70;91.60;;;;;;5055229;28;20217;-55
2021/12/31 06:10:06;;;;;;;3.50;2.60;;;9.80;91.20;;;;;;5053525;28;20258;-59
2021/12/31 06:12:36;;;;;;;2.72;2.20;;;9.80;91.10;;;;;;5054946;28;20207;-56
2021/12/31 06:15:04;;;;;;;2.95;2.13;;;9.70;91.40;;;;;;5054724;28;20683;-58
2021/12/31 06:17:33;;;;;;;2.35;1.95;;;9.60;91.40;;;;;;5054758;28;20329;-59
2021/12/31 06:20:00;;;;;;;3.03;2.50;;;9.60;91.60;;;;;;5054701;28;20205;-56
2021/12/31 06:22:27;;;;;;;2.45;2.25;;;9.50;91.80;;;;;;5054716;28;20212;-58
2021/12/31 06:24:54;;;;;;;2.63;2.33;;;9.50;91.70;;;;;;5053386;28;20197;-59
2021/12/31 06:27:20;;;;;;;3.97;2.30;;;9.50;91.70;;;;;;5054551;28;20690;-60
2021/12/31 06:29:47;;;;;;;2.70;2.35;;;9.40;92.20;;;;;;5054554;28;20205;-57
2021/12/31 06:32:14;;;;;;;2.80;2.60;;;9.30;92.50;;;;;;5054612;28;20202;-58
2021/12/31 06:34:42;;;;;;;2.78;2.20;;;9.30;92.90;;;;;;5054424;28;20208;-58
2021/12/31 06:37:09;;;;;;;2.40;2.20;;;9.30;93.00;;;;;;5054393;28;20272;-56
2021/12/31 06:39:36;;;;;;;4.20;2.30;;;9.30;93.10;;;;;;5053125;28;20251;-58
2021/12/31 06:42:07;;;;;;;2.88;2.40;;;9.30;93.40;;;;;;5054424;28;20660;-57
2021/12/31 06:44:34;;;;;;;2.42;2.22;;;9.40;93.40;;;;;;5053995;28;20205;-57
2021/12/31 06:47:02;;;;;;;2.75;2.10;;;9.40;93.60;;;;;;5054369;28;20358;-58
2021/12/31 06:49:28;;;;;;;2.38;2.05;;;9.40;93.30;;;;;;5054006;28;20201;-58
2021/12/31 06:51:57;;;;;;;2.42;2.20;;;9.50;93.10;;;;;;5054248;28;20284;-56
2021/12/31 06:54:24;;;;;;;3.78;2.63;;;9.40;93.20;;;;;;5053885;28;20212;-57
2021/12/31 06:56:50;;;;;;;3.10;2.65;;;9.40;93.10;;;;;;5053186;28;20201;-60
2021/12/31 06:59:17;;;;;;;2.60;2.40;;;9.40;93.10;;;;;;5053859;28;20725;-56
2021/12/31 07:01:44;;;;;;;2.88;2.20;;;9.40;93.30;;;;;;5054037;28;20202;-59
2021/12/31 07:04:11;;;;;;;3.50;2.78;;;9.40;93.50;;;;;;5053935;28;20244;-59
2021/12/31 07:06:38;;;;;;;3.08;2.58;;;9.30;93.70;;;;;;5053826;28;20208;-59
2021/12/31 07:09:06;;;;;;;3.65;3.20;;;9.30;93.80;;;;;;5053881;28;20200;-59
2021/12/31 07:11:33;;;;;;;4.57;3.30;;;9.20;94.10;;;;;;5052287;28;20337;-58
2021/12/31 07:14:00;;;;;;;3.90;2.80;;;9.20;94.30;;;;;;5053720;28;20202;-61
2021/12/31 07:16:27;;;;;;;3.72;3.20;;;9.20;94.20;;;;;;5053732;28;20295;-58
2021/12/31 07:18:53;;;;;;;4.53;3.38;;;9.20;94.60;;;;;;5053596;28;20351;-60
2021/12/31 07:21:20;;;;;;;5.57;4.45;;;9.10;94.70;;;;;;5053466;28;20292;-60
2021/12/31 07:23:47;;;;;;;5.10;3.90;;;9.10;94.90;;;;;;5053643;28;20205;-59
2021/12/31 07:26:15;;;;;;;5.78;4.28;;;9.10;94.90;;;;;;5052052;28;20292;-60
2021/12/31 07:28:42;;;;;;;5.25;4.18;;;9.10;94.90;;;;;;5053566;28;20209;-59
2021/12/31 07:31:12;;;;;;;3.53;3.15;;;9.10;94.90;;;;;;5053493;28;20678;-58
2021/12/31 07:33:39;;;;;;;5.10;3.78;;;9.10;95.10;;;;;;5053378;28;20237;-59
2021/12/31 07:36:06;;;;;;;6.00;4.30;;;9.00;95.30;;;;;;5053179;28;20233;-59
2021/12/31 07:38:36;;;;;;;5.45;4.88;;;9.00;95.20;;;;;;5053131;28;20233;-61
2021/12/31 07:41:03;;;;;;;4.53;3.55;;;9.00;95.40;;;;;;5052034;28;20208;-60
2021/12/31 07:43:31;;;;;;;5.50;4.00;;;9.00;95.50;;;;;;5053215;28;20205;-59
2021/12/31 07:45:58;;;;;;;7.95;4.40;;;9.00;95.50;;;;;;5053211;28;20210;-58
2021/12/31 07:48:26;;;;;;;5.57;4.50;;;9.10;95.50;;;;;;5053070;28;20296;-59
2021/12/31 07:50:54;;;;;;;7.05;4.35;;;9.10;95.40;;;;;;5052930;28;20201;-58
2021/12/31 07:53:21;;;;;;;5.70;4.50;;;9.10;95.60;;;;;;5052951;28;20300;-57
2021/12/31 07:55:48;;;;;;;6.57;4.80;;;9.20;95.60;;;;;;5051161;28;20572;-58
2021/12/31 07:58:15;;;;;;;8.02;5.05;;;9.30;95.30;;;;;;5052861;28;20328;-57
2021/12/31 08:00:43;;;;;;;5.82;5.10;;;9.30;95.20;;;;;;5052889;28;20227;-58
2021/12/31 08:03:10;;;;;;;6.65;5.20;;;9.30;95.10;;;;;;5052983;28;20300;-58
2021/12/31 08:05:37;;;;;;;6.97;5.20;;;9.40;95.20;;;;;;5052871;28;20292;-59
2021/12/31 08:08:05;;;;;;;8.10;5.78;;;9.40;95.20;;;;;;5052790;28;20209;-57
2021/12/31 08:10:33;;;;;;;7.07;5.35;;;9.40;95.20;;;;;;5051360;28;20640;-59
2021/12/31 08:13:01;;;;;;;6.68;4.70;;;9.40;95.10;;;;;;5052794;28;20213;-59
2021/12/31 08:15:28;;;;;;;7.10;4.95;;;9.40;95.20;;;;;;5052905;28;20201;-58
2021/12/31 08:17:56;;;;;;;7.60;5.53;;;9.50;95.00;;;;;;5052726;28;20241;-56
2021/12/31 08:20:24;;;;;;;7.13;4.68;;;9.50;94.70;;;;;;5052453;28;20197;-55
2021/12/31 08:22:51;;;;;;;7.63;4.20;;;9.50;94.70;;;;;;5052734;28;20201;-55
2021/12/31 08:25:18;;;;;;;9.75;4.85;;;9.50;94.70;;;;;;5051442;28;20367;-59
2021/12/31 08:27:45;;;;;;;7.63;5.07;;;9.60;94.50;;;;;;5052737;28;20292;-59
2021/12/31 08:30:13;;;;;;;8.55;5.40;;;9.60;94.40;;;;;;5052633;28;20240;-59
2021/12/31 08:32:40;;;;;;;7.72;5.30;;;9.70;94.10;;;;;;5052626;28;20664;-56
2021/12/31 08:35:09;;;;;;;7.80;4.95;;;9.70;94.10;;;;;;5052223;28;20203;-56
2021/12/31 08:37:36;;;;;;;6.60;5.15;;;9.70;93.90;;;;;;5052583;28;20288;-59
2021/12/31 08:40:04;;;;;;;8.60;5.55;;;9.70;93.70;;;;;;5051259;28;20201;-61
2021/12/31 08:42:31;;;;;;;8.32;5.75;;;9.70;93.70;;;;;;5052584;28;20205;-59
2021/12/31 08:44:58;;;;;;;7.80;5.32;;;9.70;93.70;;;;;;5052503;28;20213;-59
2021/12/31 08:47:25;;;;;;;8.80;5.32;;;9.80;93.60;;;;;;5052270;28;20236;-60
2021/12/31 08:49:51;;;;;;;7.25;5.72;;;9.90;93.40;;;;;;5052329;28;20205;-59
2021/12/31 08:52:20;;;;;;;8.20;5.07;;;9.90;93.30;;;;;;5052525;28;20625;-58
2021/12/31 08:54:47;;;;;;;9.73;5.22;;;9.90;93.20;;;;;;5051127;28;20308;-59
2021/12/31 08:57:13;;;;;;;8.80;5.32;;;9.80;93.40;;;;;;5052416;28;20219;-59
2021/12/31 08:59:40;;;;;;;8.65;5.35;;;9.90;93.50;;;;;;5052226;28;20240;-58
2021/12/31 09:02:07;;;;;;;7.20;5.30;;;9.90;93.50;;;;;;5052326;28;20309;-59
2021/12/31 09:04:34;;;;;;;10.10;6.13;;;9.80;93.70;;;;;;5052406;28;20201;-61
2021/12/31 09:07:01;;;;;;;7.60;5.40;;;9.80;93.90;;;;;;5053690;28;20296;-57
2021/12/31 09:09:29;;;;;;;9.60;6.10;;;9.90;93.90;;;;;;5055678;28;20212;-59
2021/12/31 09:11:56;;;;;;;9.13;5.95;;;10.00;93.60;;;;;;5055474;28;20280;-58
2021/12/31 09:14:23;;;;;;;9.23;6.20;;;10.00;93.50;;;;;;5056055;28;20233;-60
2021/12/31 09:16:50;;;;;;;9.00;5.53;;;10.00;93.20;;;;;;5055920;28;20215;-60
2021/12/31 09:19:17;;;;;;;6.22;4.80;;;10.10;93.30;;;;;;5055830;28;20243;-61
2021/12/31 09:21:44;;;;;;;8.27;5.80;;;10.10;93.20;;;;;;5055714;28;20197;-60
2021/12/31 09:24:11;;;;;;;9.00;6.10;;;10.20;93.00;;;;;;5055873;28;20233;-60
2021/12/31 09:26:39;;;;;;;8.35;5.90;;;10.30;92.70;;;;;;5054400;28;20660;-60
2021/12/31 09:29:06;;;;;;;7.70;4.80;;;10.30;92.60;;;;;;5055788;28;20299;-60
2021/12/31 09:31:33;;;;;;;6.47;5.43;;;10.30;92.70;;;;;;5055673;28;20233;-60
2021/12/31 09:34:00;;;;;;;8.48;5.90;;;10.40;92.60;;;;;;5055680;28;20211;-60
2021/12/31 09:36:27;;;;;;;7.72;5.55;;;10.40;92.30;;;;;;5055519;28;20623;-60
2021/12/31 09:38:53;;;;;;;9.07;5.38;;;10.40;92.10;;;;;;5055581;28;20236;-58
2021/12/31 09:41:20;;;;;;;8.52;6.50;;;10.40;92.00;;;;;;5054240;28;20679;-55
2021/12/31 09:43:51;;;;;;;8.45;5.32;;;10.40;92.40;;;;;;5055548;28;20212;-59
2021/12/31 09:46:18;;;;;;;7.68;6.03;;;10.50;92.10;;;;;;5055438;28;20201;-57
2021/12/31 09:48:45;;;;;;;10.25;6.50;;;10.50;92.00;;;;;;5055432;28;20216;-59
2021/12/31 09:51:12;;;;;;;8.85;6.30;;;10.50;91.80;;;;;;5055246;28;20572;-60
2021/12/31 09:53:39;;;;;;;8.32;5.88;;;10.50;92.00;;;;;;5055251;28;20211;-59
2021/12/31 09:56:07;;;;;;;5.82;4.53;;;10.50;92.30;;;;;;5054036;28;20198;-60
2021/12/31 09:58:35;;;;;;;6.60;4.80;;;10.60;91.80;;;;;;5054887;28;20237;-60
2021/12/31 10:01:07;;;;;;;6.05;4.68;;;10.70;91.40;;;;;;5055223;28;20263;-59
2021/12/31 10:03:36;;;;;;;5.55;4.57;;;10.70;91.40;;;;;;5055129;28;20216;-60
2021/12/31 10:06:07;;;;;;;6.65;5.15;;;10.80;91.10;;;;;;5054903;28;20292;-59
2021/12/31 10:08:40;;;;;;;6.65;5.15;;;10.80;91.00;;;;;;5055076;28;20205;-59
2021/12/31 10:11:09;;;;;;;7.32;4.95;;;10.90;90.90;;;;;;5053523;28;20233;-59
2021/12/31 10:13:38;;;;;;;5.70;4.53;;;10.90;90.60;;;;;;5054937;28;20770;-61
2021/12/31 10:16:06;;;;;;;6.75;4.60;;;11.00;90.60;;;;;;5054880;28;20664;-61
2021/12/31 10:18:35;;;;;;;6.90;5.50;;;11.10;89.90;;;;;;5054074;28;20243;-59
2021/12/31 10:21:03;;;;;;;6.32;4.78;;;11.10;90.00;;;;;;5054669;28;20206;-64
2021/12/31 10:23:30;;;;;;;7.35;5.38;;;11.00;90.10;;;;;;5054641;28;20288;-61
2021/12/31 10:26:18;;;;;;;7.00;5.68;;;11.00;90.30;;;;;;5053435;28;20291;-58
2021/12/31 10:28:56;;;;;;;5.95;5.13;;;11.10;90.60;;;;;;5051547;28;20213;-59
2021/12/31 10:31:27;;;;;;;8.27;5.68;;;11.20;89.90;;;;;;5054778;28;20287;-58
2021/12/31 10:33:54;;;;;;;8.30;5.40;;;11.10;90.10;;;;;;5054346;28;20652;-59
2021/12/31 10:36:35;;;;;;;9.55;6.68;;;11.20;90.10;;;;;;5054378;28;20204;-63
2021/12/31 10:39:15;;;;;;;8.00;5.60;;;11.30;89.60;;;;;;5054369;28;20233;-58
2021/12/31 10:41:42;;;;;;;7.65;5.93;;;11.20;90.00;;;;;;5053180;28;20211;-60
2021/12/31 10:44:09;;;;;;;7.65;5.75;;;11.30;90.20;;;;;;5054247;28;20565;-59
2021/12/31 10:46:37;;;;;;;7.57;5.88;;;11.50;90.40;;;;;;5054140;28;20240;-60
2021/12/31 10:49:09;;;;;;;6.78;5.15;;;11.60;89.10;;;;;;5054166;28;20249;-60
2021/12/31 10:51:39;;;;;;;6.60;5.15;;;11.60;88.40;;;;;;5054197;28;20206;-60
2021/12/31 10:54:29;;;;;;;7.22;5.93;;;11.70;88.70;;;;;;5054044;28;20201;-61
2021/12/31 10:56:57;;;;;;;6.90;5.57;;;11.80;88.50;;;;;;5053474;28;20233;-60
2021/12/31 10:59:24;;;;;;;6.38;5.05;;;12.00;87.80;;;;;;5053756;28;20229;-60
2021/12/31 11:01:54;;;;;;;6.57;5.50;;;12.10;86.90;;;;;;5053975;28;20703;-58
2021/12/31 11:04:21;;;;;;;7.78;5.80;;;12.00;86.90;;;;;;5053969;28;20240;-59
2021/12/31 11:06:49;;;;;;;6.97;5.60;;;12.00;87.50;;;;;;5053954;28;20201;-59
2021/12/31 11:09:17;;;;;;;5.65;4.88;;;12.00;87.60;;;;;;5053685;28;20300;-58
2021/12/31 11:11:47;;;;;;;5.28;4.78;;;12.00;87.30;;;;;;5052445;28;20749;-57
2021/12/31 11:14:16;;;;;;;5.30;4.80;;;12.10;87.50;;;;;;5053846;28;20255;-61
2021/12/31 11:16:43;;;;;;;6.22;5.63;;;13.00;85.10;;;;;;5053711;28;20212;-56
2021/12/31 11:19:12;;;;;;;6.10;5.50;;;14.20;80.40;;;;;;5053512;28;20327;-59
2021/12/31 11:21:40;;;;;;;6.87;6.33;;;15.20;75.80;;;;;;5053413;28;20785;-59
2021/12/31 11:24:30;;;;;;;7.03;6.43;;;16.10;73.40;;;;;;5053480;28;20447;-61
2021/12/31 11:26:59;;;;;;;7.20;6.60;;;16.60;71.60;;;;;;5053189;28;20926;-60
2021/12/31 11:29:35;;;;;;;7.87;7.30;;;17.50;69.60;;;;;;5053279;28;20802;-59
2021/12/31 11:32:02;;;;;;;7.70;7.20;;;18.60;67.20;;;;;;5052973;28;20451;-62
2021/12/31 11:34:30;;;;;;;9.57;8.90;;;19.30;64.90;;;;;;5053361;28;20551;-60
2021/12/31 11:36:57;;;;;;;8.77;8.17;;;18.90;64.60;;;;;;5053245;28;20871;-60
2021/12/31 11:39:28;;;;;;;9.40;8.80;;;18.50;65.90;;;;;;5053322;28;20578;-58
2021/12/31 11:41:58;;;;;;;8.43;7.93;;;18.30;66.80;;;;;;5052594;28;20458;-58
2021/12/31 11:44:26;;;;;;;8.43;7.93;;;18.50;66.60;;;;;;5053298;28;20455;-61
2021/12/31 11:47:09;;;;;;;8.97;8.43;;;18.80;65.10;;;;;;5053040;28;20444;-61
2021/12/31 11:49:37;;;;;;;10.73;10.03;;;18.70;64.70;;;;;;5053030;28;20922;-59
2021/12/31 11:52:07;;;;;;;9.50;8.90;;;17.40;67.60;;;;;;5053018;28;20452;-59
2021/12/31 11:54:35;;;;;;;8.40;7.87;;;16.70;70.40;;;;;;5051827;28;20526;-58
2021/12/31 11:57:27;;;;;;;8.80;8.30;;;17.00;70.90;;;;;;5052978;28;20535;-60
2021/12/31 11:59:55;;;;;;;7.83;7.30;;;17.80;68.60;;;;;;5052980;28;20498;-60
2021/12/31 12:02:32;;;;;;;9.20;8.50;;;18.50;66.70;;;;;;5052996;28;20840;-60
2021/12/31 12:05:17;;;;;;;9.40;8.90;;;18.80;64.60;;;;;;5052927;28;20458;-60
2021/12/31 12:07:47;;;;;;;9.43;8.93;;;18.80;64.80;;;;;;5052812;28;20476;-60
2021/12/31 12:10:38;;;;;;;8.53;8.13;;;18.50;65.40;;;;;;5051531;28;20476;-61
2021/12/31 12:13:28;;;;;;;9.47;8.87;;;18.30;66.10;;;;;;5052831;28;20451;-59
2021/12/31 12:15:56;;;;;;;9.20;8.60;;;17.50;67.60;;;;;;5052735;28;20448;-58
2021/12/31 12:18:51;;;;;;;8.27;7.77;;;16.60;70.30;;;;;;5052605;28;21000;-61
2021/12/31 12:21:36;;;;;;;7.47;7.07;;;16.50;71.20;;;;;;5052550;28;20455;-60
2021/12/31 12:24:04;;;;;;;8.80;8.30;;;17.80;70.90;;;;;;5052703;28;20543;-60
2021/12/31 12:26:31;;;;;;;9.60;9.00;;;19.40;65.50;;;;;;5051429;28;20562;-59
2021/12/31 12:28:58;;;;;;;9.10;8.70;;;20.30;64.30;;;;;;5052703;28;20452;-61
2021/12/31 12:31:25;;;;;;;8.90;8.40;;;20.80;60.30;;;;;;5052643;28;20447;-60
2021/12/31 12:33:58;;;;;;;9.00;8.50;;;20.80;62.80;;;;;;5052535;28;20456;-58
2021/12/31 12:36:26;;;;;;;7.47;6.97;;;21.10;62.90;;;;;;5052415;28;20482;-58
2021/12/31 12:39:04;;;;;;;8.27;7.87;;;21.00;61.00;;;;;;5052478;28;20456;-60
2021/12/31 12:41:31;;;;;;;8.40;7.90;;;20.90;61.40;;;;;;5051942;28;20534;-59
2021/12/31 12:43:58;;;;;;;8.43;8.03;;;20.80;63.30;;;;;;5056632;28;20454;-58
2021/12/31 12:46:25;;;;;;;8.90;8.50;;;21.10;60.00;;;;;;5056489;28;20451;-59
2021/12/31 12:48:54;;;;;;;8.20;7.80;;;20.40;60.10;;;;;;5056405;28;20818;-61
2021/12/31 12:51:28;;;;;;;8.50;8.10;;;19.90;60.70;;;;;;5056146;28;20923;-61
2021/12/31 12:53:55;;;;;;;9.07;8.50;;;19.20;62.70;;;;;;5056409;28;20448;-61
2021/12/31 12:56:24;;;;;;;8.70;8.30;;;19.20;63.90;;;;;;5055179;28;20843;-60
2021/12/31 12:58:52;;;;;;;8.40;8.00;;;19.40;64.80;;;;;;5056250;28;20559;-60
2021/12/31 13:01:19;;;;;;;8.37;7.97;;;19.60;64.30;;;;;;5056168;28;20938;-61